Aérodrome :
LOGIN :

S'inscrire | Disclaimer

   EN    FR    IT 

 










Légende :    VFR   VFR Marginal   IFR   IFR Intensif   IFR Très Intensif
Visi : 
Plafond : 
>= 8 km
>= 3000ft
5 à 8 km
1000 à 3000 ft
1500m à 5 km
500 à 1000 ft
800 à 1500m
200 à 500 ft
< 800m
< 200 ft
Symboles :   Orages  Brouillard  Fortes neiges  Fortes précipitations  Vent > 20 kt
SIGMETs :   Divers  Orages  Givrage  Turbulence  Onde Orograph.  Cendres Volcan.






- Altitude de l'aérodrome : 20 ft
- Code IATA : TIV


LYTV - Tivat - Montenegro

DERNIER METAR :
  • 011200Z 32006KT 290V360 9999 SCT053 BKN083 09/M04 Q1011 NOSIG

METARs EXPIRÉS :
  • 011130Z VRB06KT 9999 SCT053 BKN083 08/M03 Q1011 NOSIG
  • 011100Z VRB09KT 9999 SCT053 08/M03 Q1011 NOSIG
  • 011030Z VRB06KT 9999 SCT053 08/M04 Q1011 NOSIG
  • 011000Z 02009G19KT 9999 FEW053 07/M04 Q1011 NOSIG
  • 010930Z VRB10KT 9999 FEW053 OVC083 07/M03 Q1011 NOSIG

TAF TAF LYTV
Valide du 01 à 12h jusqu'au 02 à 12h UTC


011100Z 0112/0212 01009KT 9999 SCT050 BKN083 TX08/0112Z TN01/0203Z
PROB40
TEMPO 0112/0122 02015G25KT



MET'MAP, la Météo Aéronautique d'un coup d'oeil ! - Copyright ORBIFLY Décembre 2007 - Disclaimer

ORBIFLY MET'MAP TEAM :

Programmation & Développement : Alexandra Zaïnal
Sur une idée originale de : Baudouin d'Aumeries
Assistance à la programmation : Marc-Olivier Méhu
Soutien technique & logistique : Manuel Goepfert

Contact : metmap@orbifly.com




SOURCES & CREDITS :

   NOAA